createdAt,value
2018-02-27T00:01:34.810Z,10.00
2018-02-27T00:02:34.676Z,9.70
2018-02-27T00:04:27.436Z,9.10
2018-02-27T00:05:27.322Z,9.40
2018-02-27T00:07:20.131Z,8.80
2018-02-27T00:08:19.968Z,9.30
2018-02-27T00:10:12.729Z,8.80
2018-02-27T00:11:12.615Z,8.70
2018-02-27T00:13:05.405Z,9.30
2018-02-27T00:14:05.264Z,8.70
2018-02-27T00:15:58.531Z,9.20
2018-02-27T00:16:58.435Z,8.70
2018-02-27T00:18:51.296Z,8.30
2018-02-27T00:19:51.172Z,8.70
2018-02-27T00:21:43.968Z,8.50
2018-02-27T00:22:43.820Z,8.60
2018-02-27T00:24:36.579Z,8.30
2018-02-27T00:25:36.490Z,8.90
2018-02-27T00:27:29.348Z,8.40
2018-02-27T00:28:29.224Z,8.90
2018-02-27T00:30:22.073Z,8.50
2018-02-27T00:31:21.968Z,8.10
2018-02-27T00:33:14.850Z,8.40
2018-02-27T00:34:14.707Z,8.50
2018-02-27T00:36:07.573Z,8.70
2018-02-27T00:37:07.465Z,8.70
2018-02-27T00:39:00.337Z,8.70
2018-02-27T00:40:00.209Z,8.30
2018-02-27T00:41:53.067Z,9.00
2018-02-27T00:42:52.988Z,9.10
2018-02-27T00:44:45.848Z,8.60
2018-02-27T00:45:45.737Z,9.40
2018-02-27T00:47:38.596Z,9.30
2018-02-27T00:48:38.456Z,9.70
2018-02-27T00:50:31.337Z,9.20
2018-02-27T00:51:31.246Z,8.70
2018-02-27T00:53:24.079Z,9.80
2018-02-27T00:54:23.955Z,9.70
2018-02-27T00:56:16.830Z,8.90
2018-02-27T00:57:16.705Z,9.30
2018-02-27T00:59:09.995Z,9.00
2018-02-27T01:00:09.869Z,9.60
2018-02-27T01:02:02.651Z,9.10
2018-02-27T01:03:02.544Z,10.00
2018-02-27T01:04:55.314Z,10.80
2018-02-27T01:05:55.169Z,10.90
2018-02-27T01:07:47.980Z,11.70
2018-02-27T01:08:47.816Z,11.80
2018-02-27T01:10:40.678Z,11.00
2018-02-27T01:11:40.552Z,10.90
2018-02-27T01:13:33.341Z,10.40
2018-02-27T01:14:33.221Z,11.20
2018-02-27T01:16:25.975Z,11.20
2018-02-27T01:17:25.854Z,10.80
2018-02-27T01:19:18.681Z,10.00
2018-02-27T01:20:18.509Z,10.50
2018-02-27T01:22:11.269Z,10.70
2018-02-27T01:23:11.150Z,10.60
2018-02-27T01:25:04.026Z,11.50
2018-02-27T01:26:03.898Z,10.40
2018-02-27T01:27:56.862Z,11.20
2018-02-27T01:28:56.766Z,11.80
2018-02-27T01:30:49.622Z,11.20
2018-02-27T01:31:49.496Z,11.00
2018-02-27T01:33:42.871Z,11.50
2018-02-27T01:34:42.769Z,11.00
2018-02-27T01:36:35.647Z,11.50
2018-02-27T01:37:35.505Z,10.70
2018-02-27T01:39:28.374Z,10.70
2018-02-27T01:40:28.255Z,10.60
2018-02-27T01:42:21.355Z,10.10
2018-02-27T01:43:21.250Z,10.80
2018-02-27T01:45:14.109Z,10.50
2018-02-27T01:46:13.972Z,10.20
2018-02-27T01:48:06.845Z,9.80
2018-02-27T01:49:06.720Z,10.60
2018-02-27T01:50:59.576Z,10.40
2018-02-27T01:51:59.466Z,9.20
2018-02-27T01:53:52.396Z,9.50
2018-02-27T01:54:52.222Z,9.90
2018-02-27T01:56:45.073Z,9.00
2018-02-27T01:57:44.961Z,8.90
2018-02-27T01:59:37.738Z,8.90
2018-02-27T02:00:37.607Z,9.00
2018-02-27T02:02:30.467Z,8.60
2018-02-27T02:03:30.358Z,8.00
2018-02-27T02:05:23.246Z,9.10
2018-02-27T02:06:23.103Z,9.20
2018-02-27T02:08:16.006Z,8.80
2018-02-27T02:09:15.857Z,9.20
2018-02-27T02:11:09.255Z,9.20
2018-02-27T02:12:09.120Z,8.90
2018-02-27T02:14:02.012Z,9.40
2018-02-27T02:15:01.875Z,9.60
2018-02-27T02:16:54.766Z,9.20
2018-02-27T02:17:54.623Z,9.30
2018-02-27T02:19:48.411Z,9.10
2018-02-27T02:20:48.373Z,8.70
2018-02-27T02:22:42.159Z,8.40
2018-02-27T02:23:41.758Z,8.90
2018-02-27T02:25:34.612Z,8.60
2018-02-27T02:26:34.498Z,8.60
2018-02-27T02:28:27.388Z,9.20
2018-02-27T02:29:27.249Z,9.50
2018-02-27T02:31:20.134Z,9.80
2018-02-27T02:32:20.012Z,9.70
2018-02-27T02:34:12.880Z,9.40
2018-02-27T02:35:12.748Z,9.50
2018-02-27T02:37:05.619Z,10.00
2018-02-27T02:38:05.604Z,10.40
2018-02-27T02:39:58.408Z,9.70
2018-02-27T02:40:58.248Z,9.90
2018-02-27T02:42:51.133Z,9.90
2018-02-27T02:43:51.025Z,10.30
2018-02-27T02:45:44.402Z,9.90
2018-02-27T02:46:44.276Z,9.90
2018-02-27T02:48:37.125Z,10.30
2018-02-27T02:49:37.007Z,9.90
2018-02-27T02:51:29.878Z,10.60
2018-02-27T02:52:29.761Z,10.60
2018-02-27T02:54:22.638Z,12.20
2018-02-27T02:55:22.518Z,12.00
2018-02-27T02:57:15.405Z,11.00
2018-02-27T02:58:15.259Z,11.90
2018-02-27T03:00:08.044Z,9.70
2018-02-27T03:01:07.916Z,9.70
2018-02-27T03:03:00.680Z,9.20
2018-02-27T03:04:00.558Z,8.70
2018-02-27T03:05:53.420Z,9.00
2018-02-27T03:06:53.302Z,9.30
2018-02-27T03:08:46.389Z,8.80
2018-02-27T03:09:46.266Z,8.80
2018-02-27T03:11:39.135Z,8.40
2018-02-27T03:12:39.054Z,8.70
2018-02-27T03:14:31.956Z,8.80
2018-02-27T03:15:31.763Z,8.70
2018-02-27T03:17:24.721Z,8.70
2018-02-27T03:18:24.513Z,8.80
2018-02-27T03:20:17.397Z,9.00
2018-02-27T03:21:17.260Z,8.40
2018-02-27T03:23:10.643Z,8.40
2018-02-27T03:24:10.530Z,8.40
2018-02-27T03:26:03.402Z,9.80
2018-02-27T03:27:03.274Z,9.50
2018-02-27T03:28:56.144Z,9.30
2018-02-27T03:29:56.014Z,8.80
2018-02-27T03:31:48.912Z,9.30
2018-02-27T03:32:48.767Z,9.00
2018-02-27T03:34:41.630Z,8.80
2018-02-27T03:35:41.533Z,8.50
2018-02-27T03:37:34.453Z,8.40
2018-02-27T03:38:34.345Z,8.50
2018-02-27T03:40:27.147Z,8.70
2018-02-27T03:41:27.011Z,8.80
2018-02-27T03:43:19.879Z,8.10
2018-02-27T03:44:19.774Z,8.20
2018-02-27T03:46:12.637Z,9.20
2018-02-27T03:47:12.508Z,8.80
2018-02-27T03:49:05.377Z,8.70
2018-02-27T03:50:05.269Z,8.10
2018-02-27T03:51:58.138Z,8.50
2018-02-27T03:52:58.013Z,8.80
2018-02-27T03:54:50.887Z,13.70
2018-02-27T03:55:50.783Z,13.90
2018-02-27T03:57:43.654Z,12.90
2018-02-27T03:58:43.515Z,12.00
2018-02-27T04:00:36.393Z,11.30
2018-02-27T04:01:36.258Z,11.50
2018-02-27T04:03:29.127Z,11.60
2018-02-27T04:04:29.014Z,12.10
2018-02-27T04:06:22.282Z,11.50
2018-02-27T04:07:22.173Z,11.40
2018-02-27T04:09:14.970Z,12.10
2018-02-27T04:10:14.816Z,12.30
2018-02-27T04:12:07.582Z,12.40
2018-02-27T04:13:07.526Z,12.00
2018-02-27T04:15:00.272Z,12.00
2018-02-27T04:16:00.131Z,12.20
2018-02-27T04:17:52.943Z,10.80
2018-02-27T04:18:52.759Z,10.40
2018-02-27T04:20:45.536Z,10.00
2018-02-27T04:21:45.412Z,9.80
2018-02-27T04:23:38.274Z,9.70
2018-02-27T04:24:38.062Z,9.20
2018-02-27T04:26:30.838Z,8.90
2018-02-27T04:27:30.705Z,9.20
2018-02-27T04:29:23.565Z,9.00
2018-02-27T04:30:23.445Z,9.30
2018-02-27T04:32:16.198Z,8.90
2018-02-27T04:33:16.007Z,9.30
2018-02-27T04:35:09.369Z,9.40
2018-02-27T04:36:08.759Z,9.20
2018-02-27T04:38:02.042Z,9.30
2018-02-27T04:39:01.912Z,8.40
2018-02-27T04:40:54.783Z,8.60
2018-02-27T04:41:54.567Z,8.40
2018-02-27T04:43:47.437Z,9.30
2018-02-27T04:44:47.199Z,9.30
2018-02-27T04:46:39.968Z,8.80
2018-02-27T04:47:39.866Z,8.90
2018-02-27T04:49:32.615Z,9.30
2018-02-27T04:50:32.492Z,8.60
2018-02-27T04:52:25.273Z,9.90
2018-02-27T04:53:25.139Z,9.70
2018-02-27T04:55:17.909Z,9.40
2018-02-27T04:56:17.813Z,9.00
2018-02-27T04:58:10.561Z,9.50
2018-02-27T04:59:10.433Z,9.60
2018-02-27T05:01:03.212Z,9.70
2018-02-27T05:02:03.087Z,9.60
2018-02-27T05:03:55.841Z,8.80
2018-02-27T05:04:55.737Z,9.70
2018-02-27T05:06:49.035Z,9.60
2018-02-27T05:07:48.893Z,9.30
2018-02-27T05:09:41.689Z,9.50
2018-02-27T05:10:41.538Z,9.00
2018-02-27T05:12:35.285Z,12.20
2018-02-27T05:13:34.352Z,11.80
2018-02-27T05:15:26.945Z,12.80
2018-02-27T05:16:26.830Z,13.20
2018-02-27T05:18:19.625Z,14.10
2018-02-27T05:19:19.498Z,13.80
2018-02-27T05:21:12.807Z,12.80
2018-02-27T05:22:12.139Z,12.00
2018-02-27T05:24:05.057Z,12.00
2018-02-27T05:25:04.932Z,12.00
2018-02-27T05:26:57.653Z,11.50
2018-02-27T05:27:57.527Z,11.80
2018-02-27T05:29:50.300Z,11.30
2018-02-27T05:30:50.170Z,10.50
2018-02-27T05:32:42.932Z,11.00
2018-02-27T05:33:42.815Z,10.70
2018-02-27T05:35:35.606Z,11.90
2018-02-27T05:36:35.485Z,12.90
2018-02-27T05:38:28.227Z,12.70
2018-02-27T05:39:28.101Z,12.80
2018-02-27T05:41:20.913Z,12.60
2018-02-27T05:42:20.761Z,12.80
2018-02-27T05:44:13.528Z,12.90
2018-02-27T05:45:13.403Z,12.20
2018-02-27T05:47:06.184Z,12.30
2018-02-27T05:48:06.045Z,12.80
2018-02-27T05:49:58.873Z,12.10
2018-02-27T05:50:58.712Z,12.70
2018-02-27T05:52:51.478Z,13.00
2018-02-27T05:53:51.344Z,12.90
2018-02-27T05:55:44.896Z,12.60
2018-02-27T05:56:44.508Z,12.50
2018-02-27T05:58:37.271Z,11.90
2018-02-27T05:59:37.152Z,11.70
2018-02-27T06:01:29.958Z,11.80
2018-02-27T06:02:29.797Z,11.30
2018-02-27T06:04:22.559Z,11.00
2018-02-27T06:05:22.454Z,11.40
2018-02-27T06:07:15.324Z,11.10
2018-02-27T06:08:15.194Z,11.00
2018-02-27T06:10:07.989Z,11.20
2018-02-27T06:11:07.852Z,11.00
2018-02-27T06:13:00.621Z,11.90
2018-02-27T06:14:00.491Z,11.60
2018-02-27T06:15:53.289Z,10.80
2018-02-27T06:16:53.147Z,10.90
2018-02-27T06:18:45.945Z,10.60
2018-02-27T06:19:45.816Z,11.10
2018-02-27T06:21:38.545Z,11.20
2018-02-27T06:22:38.441Z,10.70
2018-02-27T06:24:31.241Z,11.20
2018-02-27T06:25:31.093Z,10.70
2018-02-27T06:27:23.838Z,10.50
2018-02-27T06:28:23.784Z,10.50
2018-02-27T06:30:16.765Z,10.30
2018-02-27T06:31:16.377Z,10.60
2018-02-27T06:33:09.130Z,11.20
2018-02-27T06:34:09.021Z,10.20
2018-02-27T06:36:01.881Z,10.50
2018-02-27T06:37:01.687Z,11.00
2018-02-27T06:38:54.490Z,10.90
2018-02-27T06:39:54.370Z,10.50
2018-02-27T06:41:47.708Z,10.90
2018-02-27T06:42:47.566Z,10.50
2018-02-27T06:44:40.459Z,10.30
2018-02-27T06:45:40.331Z,10.50
2018-02-27T06:47:33.226Z,11.10
2018-02-27T06:48:33.067Z,10.50
2018-02-27T06:50:26.250Z,10.70
2018-02-27T06:51:26.127Z,10.50
2018-02-27T06:53:19.140Z,10.90
2018-02-27T06:54:18.988Z,11.10
2018-02-27T06:56:12.881Z,11.10
2018-02-27T06:57:12.768Z,10.90
2018-02-27T06:59:05.635Z,10.70
2018-02-27T07:00:05.504Z,10.90
2018-02-27T07:01:58.372Z,11.20
2018-02-27T07:02:58.255Z,11.70
2018-02-27T07:04:51.140Z,11.40
2018-02-27T07:05:51.019Z,11.90
2018-02-27T07:07:43.855Z,13.10
2018-02-27T07:08:43.753Z,12.90
2018-02-27T07:10:36.625Z,15.20
2018-02-27T07:11:36.529Z,15.30
2018-02-27T07:13:29.372Z,14.70
2018-02-27T07:14:29.262Z,14.00
2018-02-27T07:16:22.144Z,13.80
2018-02-27T07:17:22.002Z,13.40
2018-02-27T07:19:15.390Z,13.70
2018-02-27T07:20:15.260Z,14.80
2018-02-27T07:22:08.148Z,14.30
2018-02-27T07:23:08.009Z,14.50
2018-02-27T07:25:01.386Z,14.40
2018-02-27T07:26:01.280Z,13.70
2018-02-27T07:27:54.159Z,14.30
2018-02-27T07:28:54.021Z,14.20
2018-02-27T07:30:46.985Z,13.90
2018-02-27T07:31:46.895Z,14.30
2018-02-27T07:33:40.027Z,14.30
2018-02-27T07:34:39.631Z,14.40
2018-02-27T07:36:32.509Z,13.70
2018-02-27T07:37:32.380Z,14.80
2018-02-27T07:39:25.248Z,14.10
2018-02-27T07:40:25.122Z,14.50
2018-02-27T07:42:18.000Z,13.90
2018-02-27T07:43:17.884Z,15.10
2018-02-27T07:45:10.758Z,14.40
2018-02-27T07:46:10.630Z,14.40
2018-02-27T07:48:03.488Z,14.30
2018-02-27T07:49:03.379Z,13.80
2018-02-27T07:50:56.388Z,13.50
2018-02-27T07:51:56.230Z,14.00
2018-02-27T07:53:49.090Z,14.40
2018-02-27T07:54:48.980Z,14.20
2018-02-27T07:56:41.846Z,14.10
2018-02-27T07:57:41.727Z,14.50
2018-02-27T07:59:34.604Z,14.50
2018-02-27T08:00:34.480Z,14.00
2018-02-27T08:02:27.351Z,14.10
2018-02-27T08:03:27.245Z,14.20
2018-02-27T08:05:20.092Z,14.40
2018-02-27T08:06:19.993Z,14.40
2018-02-27T08:08:12.854Z,13.30
2018-02-27T08:09:12.730Z,13.30
2018-02-27T08:11:05.858Z,12.60
2018-02-27T08:12:05.491Z,12.90
2018-02-27T08:13:58.337Z,14.40
2018-02-27T08:14:58.258Z,13.80
2018-02-27T08:16:51.112Z,14.20
2018-02-27T08:17:51.094Z,14.20
2018-02-27T08:19:43.848Z,13.30
2018-02-27T08:20:43.729Z,13.10
2018-02-27T08:22:37.128Z,13.00
2018-02-27T08:23:37.007Z,12.90
2018-02-27T08:25:29.911Z,13.20
2018-02-27T08:26:29.739Z,12.80
2018-02-27T08:28:22.615Z,13.40
2018-02-27T08:29:22.492Z,13.40
2018-02-27T08:31:15.458Z,13.00
2018-02-27T08:32:15.342Z,11.90
2018-02-27T08:34:08.724Z,12.60
2018-02-27T08:35:08.593Z,12.40
2018-02-27T08:37:01.462Z,13.80
2018-02-27T08:38:01.345Z,13.10
2018-02-27T08:39:54.226Z,12.70
2018-02-27T08:40:54.092Z,13.20
2018-02-27T08:42:46.961Z,12.70
2018-02-27T08:43:46.854Z,12.70
2018-02-27T08:45:39.716Z,13.40
2018-02-27T08:46:39.598Z,12.20
2018-02-27T08:48:32.464Z,12.00
2018-02-27T08:49:32.342Z,13.00
2018-02-27T08:51:25.118Z,12.20
2018-02-27T08:52:24.998Z,12.80
2018-02-27T08:54:17.785Z,11.40
2018-02-27T08:55:17.648Z,11.10
2018-02-27T08:57:10.442Z,10.40
2018-02-27T08:58:10.292Z,10.30
2018-02-27T09:00:03.046Z,10.80
2018-02-27T09:01:02.937Z,10.50
2018-02-27T09:02:55.724Z,10.40
2018-02-27T09:03:55.584Z,10.20
2018-02-27T09:05:48.338Z,9.90
2018-02-27T09:06:48.239Z,9.60
2018-02-27T09:08:41.008Z,8.30
2018-02-27T09:09:40.875Z,8.80
2018-02-27T09:11:33.642Z,9.10
2018-02-27T09:12:33.526Z,9.30
2018-02-27T09:14:26.371Z,10.70
2018-02-27T09:15:26.228Z,10.10
2018-02-27T09:17:18.929Z,9.30
2018-02-27T09:18:18.823Z,8.80
2018-02-27T09:20:11.748Z,8.10
2018-02-27T09:21:11.574Z,7.20
2018-02-27T09:23:04.419Z,7.20
2018-02-27T09:24:04.221Z,6.60
2018-02-27T09:25:56.994Z,7.50
2018-02-27T09:26:56.870Z,6.90
2018-02-27T09:28:49.667Z,7.50
2018-02-27T09:29:49.556Z,7.40
2018-02-27T09:31:42.278Z,6.70
2018-02-27T09:32:42.171Z,6.20
2018-02-27T09:34:34.949Z,5.90
2018-02-27T09:35:34.812Z,6.00
2018-02-27T09:37:27.572Z,7.10
2018-02-27T09:38:27.473Z,7.40
2018-02-27T09:40:20.217Z,5.80
2018-02-27T09:41:20.108Z,5.80
2018-02-27T09:43:12.861Z,6.60
2018-02-27T09:44:12.747Z,5.70
2018-02-27T09:46:05.528Z,6.60
2018-02-27T09:47:05.398Z,6.70
2018-02-27T09:48:58.158Z,5.50
2018-02-27T09:49:58.044Z,6.10
2018-02-27T09:51:50.888Z,5.80
2018-02-27T09:52:50.691Z,5.50
2018-02-27T09:54:43.465Z,5.70
2018-02-27T09:55:43.342Z,6.00
2018-02-27T09:57:36.112Z,5.40
2018-02-27T09:58:35.989Z,5.40
2018-02-27T10:00:28.740Z,5.20
2018-02-27T10:01:28.643Z,4.70
2018-02-27T10:03:21.400Z,4.10
2018-02-27T10:04:21.280Z,4.10
2018-02-27T10:06:14.097Z,3.50
2018-02-27T10:07:13.931Z,3.60
2018-02-27T10:09:06.712Z,4.00
2018-02-27T10:10:06.579Z,3.70
2018-02-27T10:11:59.327Z,4.20
2018-02-27T10:12:59.235Z,4.00
2018-02-27T10:14:51.997Z,5.30
2018-02-27T10:15:51.887Z,5.50
2018-02-27T10:17:44.650Z,4.80
2018-02-27T10:18:44.535Z,4.50
2018-02-27T10:20:37.306Z,5.00
2018-02-27T10:21:37.191Z,5.30
2018-02-27T10:23:29.932Z,4.70
2018-02-27T10:24:29.809Z,4.50
2018-02-27T10:26:22.597Z,4.80
2018-02-27T10:27:22.470Z,5.20
2018-02-27T10:29:15.351Z,4.80
2018-02-27T10:30:15.238Z,4.80
2018-02-27T10:32:08.112Z,4.80
2018-02-27T10:33:07.957Z,4.60
2018-02-27T10:35:00.714Z,3.90
2018-02-27T10:36:00.670Z,3.90
2018-02-27T10:37:53.886Z,3.50
2018-02-27T10:38:53.771Z,3.50
2018-02-27T10:40:46.512Z,3.50
2018-02-27T10:41:46.427Z,3.50
2018-02-27T10:43:39.176Z,3.40
2018-02-27T10:44:39.064Z,3.10
2018-02-27T10:46:31.810Z,3.30
2018-02-27T10:47:31.712Z,3.20
2018-02-27T10:49:24.511Z,2.80
2018-02-27T10:50:24.365Z,2.90
2018-02-27T10:52:17.117Z,2.10
2018-02-27T10:53:17.023Z,2.60
2018-02-27T10:55:09.766Z,3.10
2018-02-27T10:56:09.650Z,3.20
2018-02-27T10:58:02.498Z,4.10
2018-02-27T10:59:02.390Z,4.40
2018-02-27T11:00:55.162Z,5.10
2018-02-27T11:01:55.058Z,4.50
2018-02-27T11:03:47.792Z,4.60
2018-02-27T11:04:47.697Z,4.40
2018-02-27T11:06:40.464Z,3.40
2018-02-27T11:07:40.350Z,3.80
2018-02-27T11:09:33.211Z,4.60
2018-02-27T11:10:33.086Z,5.10
2018-02-27T11:12:25.950Z,4.80
2018-02-27T11:13:25.736Z,4.90
2018-02-27T11:15:18.500Z,4.40
2018-02-27T11:16:18.382Z,4.60
2018-02-27T11:18:11.185Z,4.40
2018-02-27T11:19:11.036Z,4.10
2018-02-27T11:21:03.907Z,3.90
2018-02-27T11:22:03.786Z,4.30
2018-02-27T11:23:56.571Z,4.00
2018-02-27T11:24:56.472Z,4.20
2018-02-27T11:26:49.285Z,4.00
2018-02-27T11:27:49.166Z,4.00
2018-02-27T11:29:42.061Z,4.50
2018-02-27T11:30:41.919Z,4.40
2018-02-27T11:32:34.684Z,4.40
2018-02-27T11:33:34.578Z,4.20
2018-02-27T11:35:27.455Z,10.40
2018-02-27T11:36:27.320Z,8.90
2018-02-27T11:38:20.176Z,5.90
2018-02-27T11:39:20.070Z,8.10
2018-02-27T11:41:12.836Z,8.70
2018-02-27T11:42:12.719Z,8.20
2018-02-27T11:44:05.472Z,12.70
2018-02-27T11:45:05.377Z,9.00
2018-02-27T11:46:58.135Z,6.90
2018-02-27T11:47:58.022Z,11.40
2018-02-27T11:49:50.853Z,4.70
2018-02-27T11:50:50.668Z,4.90
2018-02-27T11:52:43.552Z,3.80
2018-02-27T11:53:43.407Z,3.90
2018-02-27T11:55:36.279Z,3.90
2018-02-27T11:56:36.161Z,3.80
2018-02-27T11:58:28.942Z,4.30
2018-02-27T11:59:28.853Z,4.30
2018-02-27T12:01:22.148Z,3.90
2018-02-27T12:02:21.486Z,4.20
2018-02-27T12:04:14.331Z,4.00
2018-02-27T12:05:14.198Z,4.00
2018-02-27T12:07:06.961Z,4.00
2018-02-27T12:08:06.855Z,4.00
2018-02-27T12:10:00.196Z,3.80
2018-02-27T12:10:59.621Z,3.40
2018-02-27T12:12:52.360Z,3.70
2018-02-27T12:13:52.261Z,3.60
2018-02-27T12:15:45.128Z,3.50
2018-02-27T12:16:45.004Z,3.30
2018-02-27T12:18:37.836Z,3.30
2018-02-27T12:19:37.656Z,3.30
2018-02-27T12:21:30.509Z,2.80
2018-02-27T12:22:30.392Z,2.90
2018-02-27T12:24:23.232Z,3.00
2018-02-27T12:25:23.050Z,2.90
2018-02-27T12:27:15.839Z,2.60
2018-02-27T12:28:15.688Z,2.80
2018-02-27T12:30:08.490Z,2.90
2018-02-27T12:31:08.336Z,2.80
2018-02-27T12:33:01.380Z,2.70
2018-02-27T12:34:01.001Z,2.80
2018-02-27T12:35:53.828Z,3.10
2018-02-27T12:36:53.642Z,3.20
2018-02-27T12:38:46.416Z,3.30
2018-02-27T12:39:46.423Z,3.30
2018-02-27T12:41:39.133Z,2.80
2018-02-27T12:42:39.036Z,3.00
2018-02-27T12:44:31.795Z,3.00
2018-02-27T12:45:31.694Z,3.40
2018-02-27T12:47:24.504Z,2.90
2018-02-27T12:48:24.324Z,3.00
2018-02-27T12:50:17.202Z,3.20
2018-02-27T12:51:17.068Z,3.10
2018-02-27T12:53:09.941Z,3.20
2018-02-27T12:54:09.824Z,3.20
2018-02-27T12:56:02.592Z,3.20
2018-02-27T12:57:02.469Z,3.20
2018-02-27T12:58:55.359Z,3.50
2018-02-27T12:59:55.222Z,3.10
2018-02-27T13:01:48.511Z,3.20
2018-02-27T13:02:48.378Z,3.40
2018-02-27T13:04:41.328Z,3.30
2018-02-27T13:05:41.222Z,2.90
2018-02-27T13:07:34.067Z,3.10
2018-02-27T13:08:33.910Z,3.00
2018-02-27T13:10:26.639Z,3.30
2018-02-27T13:11:26.518Z,3.50
2018-02-27T13:13:19.391Z,3.20
2018-02-27T13:14:19.281Z,3.60
2018-02-27T13:16:12.150Z,3.10
2018-02-27T13:17:12.019Z,3.00
2018-02-27T13:19:04.906Z,3.10
2018-02-27T13:20:04.802Z,2.80
2018-02-27T13:21:57.634Z,2.90
2018-02-27T13:22:57.521Z,3.00
2018-02-27T13:24:50.408Z,2.90
2018-02-27T13:25:50.268Z,3.00
2018-02-27T13:27:44.056Z,2.90
2018-02-27T13:28:43.944Z,2.80
2018-02-27T13:30:36.802Z,2.70
2018-02-27T13:31:36.710Z,2.70
2018-02-27T13:33:29.549Z,3.00
2018-02-27T13:34:29.442Z,3.00
2018-02-27T13:36:22.332Z,3.20
2018-02-27T13:37:22.188Z,3.30
2018-02-27T13:39:15.048Z,3.80
2018-02-27T13:40:14.946Z,3.50
2018-02-27T13:42:07.809Z,3.40
2018-02-27T13:43:07.702Z,3.20
2018-02-27T13:45:00.954Z,3.30
2018-02-27T13:46:00.844Z,3.40
2018-02-27T13:47:53.778Z,3.10
2018-02-27T13:48:53.616Z,3.40
2018-02-27T13:50:46.456Z,3.60
2018-02-27T13:51:46.356Z,3.70
2018-02-27T13:53:39.209Z,3.60
2018-02-27T13:54:39.095Z,3.10
2018-02-27T13:56:31.952Z,3.30
2018-02-27T13:57:31.853Z,3.40
2018-02-27T13:59:24.734Z,3.20
2018-02-27T14:00:24.633Z,3.40
2018-02-27T14:02:17.453Z,3.40
2018-02-27T14:03:17.348Z,3.30
2018-02-27T14:05:10.231Z,3.30
2018-02-27T14:06:10.095Z,3.20
2018-02-27T14:08:03.361Z,3.40
2018-02-27T14:09:03.267Z,3.20
2018-02-27T14:10:56.047Z,3.30
2018-02-27T14:11:55.899Z,3.00
2018-02-27T14:13:48.648Z,3.70
2018-02-27T14:14:48.547Z,3.70
2018-02-27T14:16:41.326Z,3.70
2018-02-27T14:17:41.194Z,3.50
2018-02-27T14:19:33.980Z,3.50
2018-02-27T14:20:33.843Z,3.60
2018-02-27T14:22:26.653Z,3.80
2018-02-27T14:23:26.499Z,3.60
2018-02-27T14:25:19.341Z,3.50
2018-02-27T14:26:19.147Z,3.40
2018-02-27T14:28:11.910Z,3.50
2018-02-27T14:29:11.798Z,3.40
2018-02-27T14:31:04.567Z,3.30
2018-02-27T14:32:04.435Z,3.40
2018-02-27T14:33:57.219Z,3.60
2018-02-27T14:34:57.075Z,3.70
2018-02-27T14:36:49.837Z,3.40
2018-02-27T14:37:49.718Z,3.50
2018-02-27T14:39:42.567Z,3.80
2018-02-27T14:40:42.373Z,3.60
2018-02-27T14:42:35.125Z,4.10
2018-02-27T14:43:35.025Z,3.50
2018-02-27T14:45:27.803Z,3.40
2018-02-27T14:46:27.667Z,3.70
2018-02-27T14:48:20.417Z,3.60
2018-02-27T14:49:20.323Z,3.50
2018-02-27T14:51:13.089Z,7.40
2018-02-27T14:52:12.978Z,4.50
2018-02-27T14:54:06.231Z,4.00
2018-02-27T14:55:06.117Z,3.60
2018-02-27T14:56:58.893Z,6.20
2018-02-27T14:57:58.766Z,4.60
2018-02-27T14:59:51.551Z,4.20
2018-02-27T15:00:51.420Z,4.40
2018-02-27T15:02:44.722Z,4.60
2018-02-27T15:03:44.576Z,4.40
2018-02-27T15:05:37.334Z,3.70
2018-02-27T15:06:37.234Z,3.60
2018-02-27T15:08:31.542Z,4.40
2018-02-27T15:09:31.448Z,4.10
2018-02-27T15:11:24.670Z,4.30
2018-02-27T15:12:24.567Z,4.40
2018-02-27T15:14:17.338Z,5.00
2018-02-27T15:15:17.207Z,5.50
2018-02-27T15:17:09.970Z,5.60
2018-02-27T15:18:09.865Z,4.50
2018-02-27T15:20:03.184Z,3.40
2018-02-27T15:21:03.025Z,3.60
2018-02-27T15:22:55.785Z,3.40
2018-02-27T15:23:55.774Z,4.00
2018-02-27T15:25:48.453Z,3.50
2018-02-27T15:26:48.315Z,3.50
2018-02-27T15:28:41.075Z,3.20
2018-02-27T15:29:40.971Z,3.50
2018-02-27T15:31:33.728Z,4.00
2018-02-27T15:32:33.627Z,4.40
2018-02-27T15:34:26.456Z,3.40
2018-02-27T15:35:26.257Z,3.90
2018-02-27T15:37:19.049Z,3.20
2018-02-27T15:38:18.920Z,3.20
2018-02-27T15:40:11.765Z,3.20
2018-02-27T15:41:11.670Z,3.40
2018-02-27T15:43:04.530Z,3.30
2018-02-27T15:44:04.405Z,3.60
2018-02-27T15:45:57.270Z,3.60
2018-02-27T15:46:57.151Z,3.40
2018-02-27T15:48:50.011Z,3.50
2018-02-27T15:49:49.963Z,3.50
2018-02-27T15:51:42.747Z,3.60
2018-02-27T15:52:42.662Z,3.40
2018-02-27T15:54:35.549Z,3.90
2018-02-27T15:55:35.407Z,4.10
2018-02-27T15:57:28.312Z,4.10
2018-02-27T15:58:28.158Z,3.50
2018-02-27T16:00:21.297Z,3.90
2018-02-27T16:01:20.894Z,3.50
2018-02-27T16:03:13.767Z,3.80
2018-02-27T16:04:13.646Z,4.30
2018-02-27T16:06:06.525Z,4.00
2018-02-27T16:07:06.394Z,3.50
2018-02-27T16:08:59.256Z,4.20
2018-02-27T16:09:59.144Z,3.40
2018-02-27T16:11:52.010Z,3.90
2018-02-27T16:12:51.889Z,3.60
2018-02-27T16:14:44.755Z,4.10
2018-02-27T16:15:44.686Z,3.70
2018-02-27T16:17:37.768Z,3.90
2018-02-27T16:18:37.413Z,4.00
2018-02-27T16:20:30.158Z,3.90
2018-02-27T16:21:30.082Z,3.80
2018-02-27T16:23:22.900Z,3.80
2018-02-27T16:24:22.711Z,4.00
2018-02-27T16:26:15.528Z,4.10
2018-02-27T16:27:15.371Z,3.90
2018-02-27T16:29:08.134Z,3.70
2018-02-27T16:30:08.000Z,3.70
2018-02-27T16:32:00.737Z,4.70
2018-02-27T16:33:00.651Z,4.50
2018-02-27T16:34:53.407Z,4.80
2018-02-27T16:35:53.273Z,5.10
2018-02-27T16:37:46.034Z,4.80
2018-02-27T16:38:45.935Z,4.90
2018-02-27T16:40:38.698Z,4.20
2018-02-27T16:41:38.569Z,4.50
2018-02-27T16:43:31.946Z,5.70
2018-02-27T16:44:31.828Z,5.40
2018-02-27T16:46:24.775Z,4.50
2018-02-27T16:47:24.599Z,4.90
2018-02-27T16:49:17.492Z,4.50
2018-02-27T16:50:17.327Z,4.20
2018-02-27T16:52:10.212Z,4.60
2018-02-27T16:53:10.079Z,3.90
2018-02-27T16:55:02.936Z,3.90
2018-02-27T16:56:02.832Z,3.80
2018-02-27T16:57:55.717Z,4.30
2018-02-27T16:58:55.593Z,3.70
2018-02-27T17:00:48.440Z,3.50
2018-02-27T17:01:48.333Z,3.40
2018-02-27T17:03:41.407Z,3.80
2018-02-27T17:04:41.278Z,3.80
2018-02-27T17:06:34.136Z,3.80
2018-02-27T17:07:34.037Z,4.20
2018-02-27T17:09:26.922Z,4.60
2018-02-27T17:10:26.776Z,5.50
2018-02-27T17:12:20.614Z,5.50
2018-02-27T17:13:20.470Z,5.80
2018-02-27T17:15:13.437Z,5.30
2018-02-27T17:16:13.196Z,5.00
2018-02-27T17:18:06.059Z,4.60
2018-02-27T17:19:06.047Z,5.30
2018-02-27T17:20:58.820Z,5.20
2018-02-27T17:21:58.750Z,5.10
2018-02-27T17:23:51.559Z,4.90
2018-02-27T17:24:51.453Z,4.80
2018-02-27T17:26:44.364Z,3.90
2018-02-27T17:27:44.300Z,5.10
2018-02-27T17:29:37.166Z,6.40
2018-02-27T17:30:36.998Z,6.10
2018-02-27T17:32:29.964Z,5.30
2018-02-27T17:33:29.748Z,5.00
2018-02-27T17:35:22.585Z,5.00
2018-02-27T17:36:22.443Z,5.00
2018-02-27T17:38:15.418Z,5.10
2018-02-27T17:39:15.296Z,4.80
2018-02-27T17:41:08.781Z,5.00
2018-02-27T17:42:08.668Z,4.90
2018-02-27T17:44:02.075Z,4.50
2018-02-27T17:45:01.432Z,4.40
2018-02-27T17:46:54.273Z,4.80
2018-02-27T17:47:54.159Z,4.20
2018-02-27T17:49:47.035Z,4.50
2018-02-27T17:50:46.906Z,4.70
2018-02-27T17:52:39.792Z,4.30
2018-02-27T17:53:39.713Z,4.60
2018-02-27T17:55:32.576Z,4.30
2018-02-27T17:56:32.413Z,4.70
2018-02-27T17:58:25.289Z,4.70
2018-02-27T17:59:25.159Z,4.30
2018-02-27T18:01:18.036Z,4.90
2018-02-27T18:02:17.986Z,8.60
2018-02-27T18:04:10.800Z,6.20
2018-02-27T18:05:10.673Z,9.40
2018-02-27T18:07:04.920Z,7.10
2018-02-27T18:08:05.404Z,6.00
2018-02-27T18:09:57.622Z,5.00
2018-02-27T18:10:57.487Z,5.10
2018-02-27T18:12:50.556Z,5.00
2018-02-27T18:13:50.444Z,4.50
2018-02-27T18:15:43.909Z,4.30
2018-02-27T18:16:43.830Z,5.10
2018-02-27T18:18:36.846Z,5.20
2018-02-27T18:19:36.558Z,5.00
2018-02-27T18:21:29.219Z,4.80
2018-02-27T18:22:29.115Z,5.20
2018-02-27T18:24:21.900Z,5.20
2018-02-27T18:25:21.772Z,5.00
2018-02-27T18:27:14.508Z,4.70
2018-02-27T18:28:14.418Z,5.20
2018-02-27T18:30:07.182Z,4.80
2018-02-27T18:31:07.050Z,5.20
2018-02-27T18:32:59.810Z,5.30
2018-02-27T18:33:59.701Z,5.00
2018-02-27T18:35:52.512Z,5.50
2018-02-27T18:36:52.336Z,5.40
2018-02-27T18:38:45.107Z,5.30
2018-02-27T18:39:44.986Z,5.30
2018-02-27T18:41:37.787Z,5.00
2018-02-27T18:42:37.641Z,5.00
2018-02-27T18:44:30.522Z,5.50
2018-02-27T18:45:30.378Z,5.80
2018-02-27T18:47:23.281Z,5.60
2018-02-27T18:48:23.129Z,6.30
2018-02-27T18:50:15.991Z,6.00
2018-02-27T18:51:15.871Z,6.20
2018-02-27T18:53:08.771Z,6.90
2018-02-27T18:54:08.622Z,7.80
2018-02-27T18:56:01.582Z,7.40
2018-02-27T18:57:01.392Z,6.50
2018-02-27T18:58:54.272Z,5.90